createdAt,value
2019-02-08T00:00:46.659Z,6.90
2019-02-08T00:01:51.117Z,6.90
2019-02-08T00:02:55.574Z,6.80
2019-02-08T00:04:00.094Z,6.80
2019-02-08T00:05:06.497Z,6.80
2019-02-08T00:06:11.041Z,6.80
2019-02-08T00:07:15.492Z,6.80
2019-02-08T00:08:19.972Z,6.80
2019-02-08T00:09:24.592Z,6.80
2019-02-08T00:10:29.124Z,6.80
2019-02-08T00:11:33.999Z,6.80
2019-02-08T00:12:38.442Z,6.80
2019-02-08T00:13:42.900Z,6.80
2019-02-08T00:14:47.393Z,6.80
2019-02-08T00:15:51.978Z,6.80
2019-02-08T00:16:56.461Z,6.80
2019-02-08T00:18:00.917Z,6.80
2019-02-08T00:19:05.745Z,6.80
2019-02-08T00:20:17.788Z,6.70
2019-02-08T00:21:22.237Z,6.80
2019-02-08T00:22:26.703Z,6.70
2019-02-08T00:23:31.210Z,6.70
2019-02-08T00:24:35.662Z,6.70
2019-02-08T00:25:40.192Z,6.70
2019-02-08T00:26:44.710Z,6.70
2019-02-08T00:27:49.532Z,6.70
2019-02-08T00:28:54.278Z,6.70
2019-02-08T00:29:59.115Z,6.70
2019-02-08T00:31:03.653Z,6.70
2019-02-08T00:32:08.179Z,6.70
2019-02-08T00:33:12.669Z,6.70
2019-02-08T00:34:17.109Z,6.70
2019-02-08T00:35:22.110Z,6.70
2019-02-08T00:36:26.585Z,6.70
2019-02-08T00:37:31.036Z,6.70
2019-02-08T00:38:35.514Z,6.70
2019-02-08T00:39:39.994Z,6.70
2019-02-08T00:40:44.562Z,6.70
2019-02-08T00:41:49.059Z,6.70
2019-02-08T00:42:53.650Z,6.70
2019-02-08T00:43:58.124Z,6.70
2019-02-08T00:45:03.257Z,6.70
2019-02-08T00:46:08.095Z,6.70
2019-02-08T00:47:12.558Z,6.70
2019-02-08T00:48:17.016Z,6.70
2019-02-08T00:49:21.481Z,6.70
2019-02-08T00:50:28.371Z,6.70
2019-02-08T00:51:32.836Z,6.70
2019-02-08T00:52:37.314Z,6.70
2019-02-08T00:53:41.857Z,6.60
2019-02-08T00:54:46.318Z,6.70
2019-02-08T00:55:50.857Z,6.60
2019-02-08T00:56:55.382Z,6.70
2019-02-08T00:57:59.909Z,6.60
2019-02-08T00:59:04.893Z,6.60
2019-02-08T01:00:12.160Z,6.60
2019-02-08T01:01:16.654Z,6.60
2019-02-08T01:02:21.453Z,6.60
2019-02-08T01:03:25.902Z,6.60
2019-02-08T01:04:30.353Z,6.60
2019-02-08T01:05:34.809Z,6.60
2019-02-08T01:06:39.345Z,6.60
2019-02-08T01:07:44.145Z,6.60
2019-02-08T01:08:48.605Z,6.60
2019-02-08T01:09:53.060Z,6.60
2019-02-08T01:10:57.524Z,6.60
2019-02-08T01:12:02.233Z,6.60
2019-02-08T01:13:06.685Z,6.60
2019-02-08T01:14:11.216Z,6.60
2019-02-08T01:15:17.407Z,6.60
2019-02-08T01:16:21.873Z,6.60
2019-02-08T01:17:26.334Z,6.60
2019-02-08T01:18:30.989Z,6.70
2019-02-08T01:19:35.467Z,6.70
2019-02-08T01:20:40.022Z,6.70
2019-02-08T01:21:44.465Z,6.70
2019-02-08T01:22:49.006Z,6.70
2019-02-08T01:23:53.469Z,6.70
2019-02-08T01:24:57.929Z,6.70
2019-02-08T01:26:02.388Z,6.70
2019-02-08T01:27:06.846Z,6.70
2019-02-08T01:28:11.394Z,6.70
2019-02-08T01:29:15.862Z,6.70
2019-02-08T01:30:22.250Z,6.70
2019-02-08T01:31:26.706Z,6.70
2019-02-08T01:32:31.166Z,6.70
2019-02-08T01:33:35.701Z,6.80
2019-02-08T01:34:40.150Z,6.70
2019-02-08T01:35:44.605Z,6.70
2019-02-08T01:36:49.142Z,6.70
2019-02-08T01:37:54.363Z,6.70
2019-02-08T01:38:58.827Z,6.70
2019-02-08T01:40:05.413Z,6.70
2019-02-08T01:41:10.050Z,6.70
2019-02-08T01:42:14.581Z,6.80
2019-02-08T01:43:19.069Z,6.80
2019-02-08T01:44:23.523Z,6.80
2019-02-08T01:45:30.720Z,6.80
2019-02-08T01:46:35.183Z,6.80
2019-02-08T01:47:39.876Z,6.80
2019-02-08T01:48:44.355Z,6.80
2019-02-08T01:49:49.106Z,6.80
2019-02-08T01:50:53.929Z,6.80
2019-02-08T01:51:58.448Z,6.80
2019-02-08T01:53:02.975Z,6.80
2019-02-08T01:54:07.453Z,6.80
2019-02-08T01:55:12.650Z,6.80
2019-02-08T01:56:17.120Z,6.80
2019-02-08T01:57:21.583Z,6.80
2019-02-08T01:58:26.129Z,6.80
2019-02-08T01:59:30.753Z,6.80
2019-02-08T02:00:40.974Z,6.80
2019-02-08T02:01:45.493Z,6.80
2019-02-08T02:02:49.953Z,6.80
2019-02-08T02:03:54.800Z,6.80
2019-02-08T02:04:59.249Z,6.80
2019-02-08T02:06:03.901Z,6.80
2019-02-08T02:07:08.365Z,6.80
2019-02-08T02:08:12.849Z,6.80
2019-02-08T02:09:17.477Z,6.80
2019-02-08T02:10:27.402Z,6.80
2019-02-08T02:11:31.845Z,6.80
2019-02-08T02:12:36.449Z,6.80
2019-02-08T02:13:41.001Z,6.80
2019-02-08T02:14:45.459Z,6.80
2019-02-08T02:15:49.996Z,6.80
2019-02-08T02:16:54.841Z,6.80
2019-02-08T02:17:59.436Z,6.80
2019-02-08T02:19:04.163Z,6.80
2019-02-08T02:20:11.765Z,6.70
2019-02-08T02:21:16.243Z,6.70
2019-02-08T02:22:20.707Z,6.70
2019-02-08T02:23:25.172Z,6.70
2019-02-08T02:24:30.731Z,6.70
2019-02-08T02:25:35.190Z,6.70
2019-02-08T02:26:39.666Z,6.70
2019-02-08T02:27:44.121Z,6.70
2019-02-08T02:28:49.078Z,6.70
2019-02-08T02:29:53.516Z,6.70
2019-02-08T02:30:58.053Z,6.70
2019-02-08T02:32:02.514Z,6.70
2019-02-08T02:33:09.587Z,6.70
2019-02-08T02:34:14.040Z,6.70
2019-02-08T02:35:18.578Z,6.60
2019-02-08T02:36:23.044Z,6.70
2019-02-08T02:37:27.562Z,6.60
2019-02-08T02:38:32.058Z,6.60
2019-02-08T02:39:36.503Z,6.60
2019-02-08T02:40:41.306Z,6.60
2019-02-08T02:41:45.829Z,6.60
2019-02-08T02:42:50.918Z,6.60
2019-02-08T02:43:55.387Z,6.60
2019-02-08T02:44:59.847Z,6.70
2019-02-08T02:46:04.867Z,6.60
2019-02-08T02:47:09.341Z,6.60
2019-02-08T02:48:14.497Z,6.70
2019-02-08T02:49:19.101Z,6.70
2019-02-08T02:50:23.808Z,6.70
2019-02-08T02:51:28.281Z,6.70
2019-02-08T02:52:32.738Z,6.70
2019-02-08T02:53:37.277Z,6.70
2019-02-08T02:54:41.786Z,6.70
2019-02-08T02:55:46.251Z,6.70
2019-02-08T02:56:51.017Z,6.60
2019-02-08T02:57:55.742Z,6.70
2019-02-08T02:59:00.277Z,6.60
2019-02-08T03:00:13.783Z,6.70
2019-02-08T03:01:18.257Z,6.70
2019-02-08T03:02:22.725Z,6.60
2019-02-08T03:03:27.201Z,6.60
2019-02-08T03:04:31.680Z,6.60
2019-02-08T03:05:36.352Z,6.70
2019-02-08T03:06:40.808Z,6.60
2019-02-08T03:07:45.277Z,6.60
2019-02-08T03:08:49.804Z,6.70
2019-02-08T03:09:54.266Z,6.70
2019-02-08T03:10:58.842Z,6.60
2019-02-08T03:12:03.432Z,6.60
2019-02-08T03:13:08.326Z,6.60
2019-02-08T03:14:12.953Z,6.70
2019-02-08T03:15:22.595Z,6.70
2019-02-08T03:16:27.069Z,6.60
2019-02-08T03:17:31.563Z,6.70
2019-02-08T03:18:36.018Z,6.70
2019-02-08T03:19:40.571Z,6.70
2019-02-08T03:20:45.164Z,6.70
2019-02-08T03:21:49.643Z,6.70
2019-02-08T03:22:54.402Z,6.60
2019-02-08T03:23:58.846Z,6.70
2019-02-08T03:25:04.671Z,6.70
2019-02-08T03:26:09.296Z,6.70
2019-02-08T03:27:13.775Z,6.70
2019-02-08T03:28:18.232Z,6.70
2019-02-08T03:29:22.697Z,6.70
2019-02-08T03:30:30.673Z,6.70
2019-02-08T03:31:35.146Z,6.70
2019-02-08T03:32:39.692Z,6.70
2019-02-08T03:33:44.147Z,6.70
2019-02-08T03:34:48.615Z,6.70
2019-02-08T03:35:53.164Z,6.70
2019-02-08T03:36:57.662Z,6.70
2019-02-08T03:38:02.213Z,6.70
2019-02-08T03:39:08.317Z,6.70
2019-02-08T03:40:15.881Z,6.70
2019-02-08T03:41:20.364Z,6.70
2019-02-08T03:42:24.840Z,6.70
2019-02-08T03:43:29.307Z,6.70
2019-02-08T03:44:33.838Z,6.70
2019-02-08T03:45:39.936Z,6.70
2019-02-08T03:46:44.441Z,6.70
2019-02-08T03:47:49.263Z,6.70
2019-02-08T03:48:53.718Z,6.70
2019-02-08T03:49:58.258Z,6.70
2019-02-08T03:51:02.726Z,6.70
2019-02-08T03:52:07.214Z,6.70
2019-02-08T03:53:12.199Z,6.70
2019-02-08T03:54:21.181Z,6.70
2019-02-08T03:55:23.969Z,6.70
2019-02-08T03:56:28.443Z,6.70
2019-02-08T03:57:32.903Z,6.70
2019-02-08T03:58:37.389Z,6.70
2019-02-08T03:59:41.919Z,6.70
2019-02-08T04:00:48.032Z,6.70
2019-02-08T04:01:54.055Z,6.70
2019-02-08T04:02:58.831Z,6.70
2019-02-08T04:04:12.667Z,6.70
2019-02-08T04:05:17.359Z,6.70
2019-02-08T04:06:22.123Z,6.70
2019-02-08T04:07:26.645Z,6.70
2019-02-08T04:08:31.121Z,6.70
2019-02-08T04:09:35.572Z,6.70
2019-02-08T04:10:40.291Z,6.70
2019-02-08T04:11:44.845Z,6.70
2019-02-08T04:12:49.331Z,6.70
2019-02-08T04:13:53.877Z,6.80
2019-02-08T04:14:58.440Z,6.80
2019-02-08T04:16:03.060Z,6.80
2019-02-08T04:17:07.752Z,6.80
2019-02-08T04:18:12.202Z,6.80
2019-02-08T04:19:16.675Z,6.80
2019-02-08T04:20:26.585Z,6.80
2019-02-08T04:21:31.051Z,6.80
2019-02-08T04:22:35.515Z,6.80
2019-02-08T04:23:39.983Z,6.80
2019-02-08T04:24:44.501Z,6.80
2019-02-08T04:25:49.127Z,6.80
2019-02-08T04:26:53.602Z,6.80
2019-02-08T04:27:58.150Z,6.80
2019-02-08T04:29:02.671Z,6.80
2019-02-08T04:30:26.731Z,6.80
2019-02-08T04:31:31.204Z,6.80
2019-02-08T04:32:35.654Z,6.80
2019-02-08T04:33:40.119Z,6.80
2019-02-08T04:34:44.594Z,6.80
2019-02-08T04:35:49.143Z,6.80
2019-02-08T04:36:53.612Z,6.80
2019-02-08T04:37:58.156Z,6.80
2019-02-08T04:39:03.376Z,6.80
2019-02-08T04:40:11.530Z,6.80
2019-02-08T04:41:16.070Z,6.80
2019-02-08T04:42:20.582Z,6.80
2019-02-08T04:43:25.052Z,6.80
2019-02-08T04:44:29.508Z,6.80
2019-02-08T04:45:34.051Z,6.80
2019-02-08T04:46:38.515Z,6.80
2019-02-08T04:47:43.054Z,6.80
2019-02-08T04:48:47.532Z,6.80
2019-02-08T04:49:51.993Z,6.80
2019-02-08T04:50:56.472Z,6.80
2019-02-08T04:52:01.036Z,6.80
2019-02-08T04:53:05.667Z,6.80
2019-02-08T04:54:10.311Z,6.80
2019-02-08T04:55:15.033Z,6.80
2019-02-08T04:56:19.486Z,6.80
2019-02-08T04:57:23.992Z,6.80
2019-02-08T04:58:35.369Z,6.80
2019-02-08T04:59:34.634Z,6.80
2019-02-08T05:00:39.226Z,6.80
2019-02-08T05:01:43.689Z,6.80
2019-02-08T05:02:48.152Z,6.80
2019-02-08T05:03:52.629Z,6.80
2019-02-08T05:04:57.082Z,6.80
2019-02-08T05:06:01.977Z,6.80
2019-02-08T05:07:06.501Z,6.80
2019-02-08T05:08:11.009Z,6.80
2019-02-08T05:09:15.511Z,6.90
2019-02-08T05:10:22.624Z,6.80
2019-02-08T05:11:27.099Z,6.80
2019-02-08T05:12:31.554Z,6.90
2019-02-08T05:13:36.285Z,6.80
2019-02-08T05:14:40.756Z,6.80
2019-02-08T05:15:45.239Z,6.80
2019-02-08T05:16:49.775Z,6.80
2019-02-08T05:17:54.306Z,6.80
2019-02-08T05:18:58.759Z,6.80
2019-02-08T05:20:05.100Z,6.80
2019-02-08T05:21:11.674Z,6.80
2019-02-08T05:22:16.149Z,6.80
2019-02-08T05:23:20.621Z,6.80
2019-02-08T05:24:25.110Z,6.80
2019-02-08T05:25:29.888Z,6.80
2019-02-08T05:26:34.336Z,6.80
2019-02-08T05:27:38.791Z,6.80
2019-02-08T05:28:43.267Z,6.80
2019-02-08T05:29:49.853Z,6.80
2019-02-08T05:30:54.414Z,6.80
2019-02-08T05:31:58.879Z,6.80
2019-02-08T05:33:03.698Z,6.80
2019-02-08T05:34:08.183Z,6.80
2019-02-08T05:35:12.790Z,6.80
2019-02-08T05:36:17.261Z,6.80
2019-02-08T05:37:21.725Z,6.80
2019-02-08T05:38:26.449Z,6.80
2019-02-08T05:39:30.927Z,6.80
2019-02-08T05:40:35.376Z,6.80
2019-02-08T05:41:39.859Z,6.70
2019-02-08T05:42:44.339Z,6.70
2019-02-08T05:43:48.799Z,6.70
2019-02-08T05:44:53.272Z,6.70
2019-02-08T05:45:57.733Z,6.70
2019-02-08T05:47:02.299Z,6.70
2019-02-08T05:48:06.817Z,6.70
2019-02-08T05:49:11.326Z,6.70
2019-02-08T05:50:18.593Z,6.70
2019-02-08T05:51:23.073Z,6.60
2019-02-08T05:52:27.534Z,6.60
2019-02-08T05:53:31.989Z,6.70
2019-02-08T05:54:36.457Z,6.60
2019-02-08T05:55:40.950Z,6.60
2019-02-08T05:56:45.441Z,6.60
2019-02-08T05:57:51.617Z,6.60
2019-02-08T05:58:56.112Z,6.50
2019-02-08T06:00:02.132Z,6.50
2019-02-08T06:01:06.591Z,6.50
2019-02-08T06:02:11.048Z,6.50
2019-02-08T06:03:17.506Z,6.50
2019-02-08T06:04:22.043Z,6.50
2019-02-08T06:05:26.759Z,6.50
2019-02-08T06:06:31.208Z,6.50
2019-02-08T06:07:35.675Z,6.50
2019-02-08T06:08:40.207Z,6.50
2019-02-08T06:09:44.703Z,6.50
2019-02-08T06:10:49.227Z,6.50
2019-02-08T06:11:53.704Z,6.50
2019-02-08T06:12:58.232Z,6.50
2019-02-08T06:14:02.714Z,6.50
2019-02-08T06:15:12.857Z,6.50
2019-02-08T06:16:17.352Z,6.50
2019-02-08T06:17:21.986Z,6.50
2019-02-08T06:18:26.452Z,6.50
2019-02-08T06:19:32.443Z,6.50
2019-02-08T06:20:37.078Z,6.50
2019-02-08T06:21:41.535Z,6.50
2019-02-08T06:22:46.175Z,6.50
2019-02-08T06:23:50.641Z,6.50
2019-02-08T06:25:02.823Z,6.50
2019-02-08T06:26:01.277Z,6.50
2019-02-08T06:27:05.882Z,6.50
2019-02-08T06:28:10.472Z,6.50
2019-02-08T06:29:14.925Z,6.50
2019-02-08T06:30:27.513Z,6.50
2019-02-08T06:31:31.999Z,6.50
2019-02-08T06:32:36.476Z,6.50
2019-02-08T06:33:41.013Z,6.50
2019-02-08T06:34:45.510Z,6.50
2019-02-08T06:35:50.027Z,6.50
2019-02-08T06:36:54.505Z,6.50
2019-02-08T06:37:59.029Z,6.50
2019-02-08T06:39:05.048Z,6.50
2019-02-08T06:40:15.750Z,6.50
2019-02-08T06:41:21.745Z,6.50
2019-02-08T06:42:26.213Z,6.50
2019-02-08T06:43:30.706Z,6.50
2019-02-08T06:44:35.190Z,6.50
2019-02-08T06:45:40.103Z,6.50
2019-02-08T06:46:44.604Z,6.50
2019-02-08T06:47:49.236Z,6.50
2019-02-08T06:48:55.223Z,6.50
2019-02-08T06:49:59.761Z,6.50
2019-02-08T06:51:04.305Z,6.60
2019-02-08T06:52:08.875Z,6.60
2019-02-08T06:53:13.338Z,6.60
2019-02-08T06:54:17.820Z,6.60
2019-02-08T06:55:22.916Z,6.60
2019-02-08T06:56:45.794Z,6.60
2019-02-08T06:57:51.907Z,6.60
2019-02-08T06:58:58.004Z,6.60
2019-02-08T07:00:05.042Z,6.60
2019-02-08T07:01:16.854Z,6.60
2019-02-08T07:02:25.905Z,6.70
2019-02-08T07:03:32.024Z,6.60
2019-02-08T07:04:40.638Z,6.60
2019-02-08T07:06:02.893Z,6.60
2019-02-08T07:07:09.004Z,6.60
2019-02-08T07:08:31.355Z,6.60
2019-02-08T07:09:49.451Z,6.60
2019-02-08T07:11:01.431Z,6.60
2019-02-08T07:12:10.410Z,6.60
2019-02-08T07:13:16.713Z,6.60
2019-02-08T07:14:31.684Z,6.60
2019-02-08T07:15:37.790Z,6.50
2019-02-08T07:16:59.162Z,6.60
2019-02-08T07:18:14.233Z,6.50
2019-02-08T07:19:35.320Z,6.50
2019-02-08T07:20:41.520Z,6.50
2019-02-08T07:21:47.643Z,6.50
2019-02-08T07:23:03.707Z,6.50
2019-02-08T07:24:15.674Z,6.50
2019-02-08T07:25:21.854Z,6.50
2019-02-08T07:26:43.178Z,6.50
2019-02-08T07:27:49.290Z,6.50
2019-02-08T07:29:13.384Z,6.60
2019-02-08T07:30:34.372Z,6.60
2019-02-08T07:31:55.472Z,6.60
2019-02-08T07:33:19.198Z,6.60
2019-02-08T07:34:25.392Z,6.60
2019-02-08T07:35:37.509Z,6.60
2019-02-08T07:36:49.486Z,6.60
2019-02-08T07:37:56.317Z,6.60
2019-02-08T07:39:08.206Z,6.70
2019-02-08T07:40:32.259Z,6.70
2019-02-08T07:41:50.511Z,6.70
2019-02-08T07:43:13.204Z,6.70
2019-02-08T07:44:21.903Z,6.70
2019-02-08T07:45:37.531Z,6.70
2019-02-08T07:46:51.780Z,6.70
2019-02-08T07:47:58.216Z,6.70
2019-02-08T07:49:04.762Z,6.70
2019-02-08T07:50:30.092Z,6.70
2019-02-08T07:51:42.016Z,6.70
2019-02-08T07:52:48.241Z,6.70
2019-02-08T07:53:57.372Z,6.70
2019-02-08T07:55:25.946Z,6.70
2019-02-08T07:56:28.206Z,6.60
2019-02-08T07:57:37.113Z,6.60
2019-02-08T07:58:46.268Z,6.60
2019-02-08T08:00:01.043Z,6.60
2019-02-08T08:01:13.092Z,6.60
2019-02-08T08:02:35.997Z,6.60
2019-02-08T08:04:01.680Z,6.60
2019-02-08T08:05:10.485Z,6.60
2019-02-08T08:06:29.767Z,6.60
2019-02-08T08:07:39.140Z,6.60
2019-02-08T08:08:45.777Z,6.60
2019-02-08T08:10:04.314Z,6.60
2019-02-08T08:11:13.417Z,6.60
2019-02-08T08:12:36.843Z,6.60
2019-02-08T08:13:43.670Z,6.60
2019-02-08T08:15:00.958Z,6.70
2019-02-08T08:16:12.149Z,6.70
2019-02-08T08:17:24.408Z,6.60
2019-02-08T08:18:42.611Z,6.70
2019-02-08T08:20:02.169Z,6.70
2019-02-08T08:21:24.985Z,6.70
2019-02-08T08:22:33.717Z,6.70
2019-02-08T08:23:43.730Z,6.70
2019-02-08T08:24:52.659Z,6.70
2019-02-08T08:26:04.956Z,6.70
2019-02-08T08:27:13.957Z,6.70
2019-02-08T08:28:26.347Z,6.70
2019-02-08T08:29:34.099Z,6.80
2019-02-08T08:30:43.787Z,6.80
2019-02-08T08:31:52.899Z,6.80
2019-02-08T08:33:00.503Z,6.80
2019-02-08T08:34:10.783Z,6.80
2019-02-08T08:35:27.215Z,6.90
2019-02-08T08:37:03.652Z,6.90
2019-02-08T08:38:23.261Z,6.90
2019-02-08T08:39:45.714Z,7.00
2019-02-08T08:41:05.297Z,7.00
2019-02-08T08:42:15.617Z,7.00
2019-02-08T08:43:41.358Z,7.00
2019-02-08T08:44:51.792Z,7.00
2019-02-08T08:46:07.928Z,7.10
2019-02-08T08:47:35.281Z,7.10
2019-02-08T08:48:42.892Z,7.10
2019-02-08T08:50:21.986Z,7.10
2019-02-08T08:51:47.511Z,7.20
2019-02-08T08:53:01.173Z,7.20
2019-02-08T08:54:17.035Z,7.20
2019-02-08T08:55:45.538Z,7.20
2019-02-08T08:57:11.022Z,7.20
2019-02-08T08:58:24.082Z,7.30
2019-02-08T08:59:55.347Z,7.30
2019-02-08T09:01:14.528Z,7.30
2019-02-08T09:02:24.878Z,7.40
2019-02-08T09:03:37.532Z,7.40
2019-02-08T09:04:47.760Z,7.40
2019-02-08T09:06:08.408Z,7.40
2019-02-08T09:07:28.105Z,7.50
2019-02-08T09:08:59.312Z,7.50
2019-02-08T09:10:21.726Z,7.50
2019-02-08T09:11:51.867Z,7.60
2019-02-08T09:13:33.981Z,7.60
2019-02-08T09:15:02.600Z,7.70
2019-02-08T09:16:28.203Z,7.70
2019-02-08T09:17:59.471Z,7.70
2019-02-08T09:19:19.147Z,7.70
2019-02-08T09:20:41.704Z,7.80
2019-02-08T09:22:21.384Z,7.80
2019-02-08T09:23:52.589Z,7.80
2019-02-08T09:25:11.736Z,7.80
2019-02-08T09:26:19.274Z,7.80
2019-02-08T09:27:26.882Z,7.80
2019-02-08T09:28:51.031Z,7.90
2019-02-08T09:30:22.447Z,7.90
2019-02-08T09:31:44.706Z,7.90
2019-02-08T09:32:57.617Z,8.00
2019-02-08T09:34:07.820Z,8.10
2019-02-08T09:35:48.597Z,8.10
2019-02-08T09:37:29.780Z,8.10
2019-02-08T09:39:09.232Z,8.20
2019-02-08T09:40:36.024Z,8.30
2019-02-08T09:41:49.461Z,8.40
2019-02-08T09:43:13.493Z,8.60
2019-02-08T09:44:41.901Z,8.70
2019-02-08T09:46:09.081Z,9.00
2019-02-08T09:47:31.522Z,9.30
2019-02-08T09:48:53.126Z,9.60
2019-02-08T09:50:09.508Z,10.00
2019-02-08T09:51:22.958Z,10.30
2019-02-08T09:52:57.437Z,10.70
2019-02-08T09:54:19.734Z,11.00
2019-02-08T09:55:38.802Z,11.40
2019-02-08T09:56:55.281Z,11.80
2019-02-08T09:58:28.181Z,12.20
2019-02-08T10:00:07.259Z,12.50
2019-02-08T10:01:46.894Z,12.90
2019-02-08T10:03:24.662Z,13.30
2019-02-08T10:04:44.061Z,13.70
2019-02-08T10:06:26.470Z,14.00
2019-02-08T10:07:54.728Z,14.30
2019-02-08T10:09:14.177Z,14.60
2019-02-08T10:10:54.877Z,14.90
2019-02-08T10:12:25.157Z,15.10
2019-02-08T10:13:32.717Z,15.40
2019-02-08T10:15:12.578Z,15.70
2019-02-08T10:16:53.599Z,15.90
2019-02-08T10:18:20.488Z,16.10
2019-02-08T10:19:52.218Z,16.40
2019-02-08T10:21:20.262Z,16.60
2019-02-08T10:22:39.139Z,16.90
2019-02-08T10:24:15.549Z,17.10
2019-02-08T10:25:52.052Z,17.30
2019-02-08T10:27:23.145Z,17.50
2019-02-08T10:28:53.491Z,17.60
2019-02-08T10:30:24.882Z,17.80
2019-02-08T10:31:55.052Z,17.90
2019-02-08T10:33:35.408Z,18.00
2019-02-08T10:35:16.694Z,18.20
2019-02-08T10:36:57.624Z,18.30
2019-02-08T10:38:18.265Z,18.50
2019-02-08T10:39:38.250Z,18.70
2019-02-08T10:41:07.846Z,18.80
2019-02-08T10:42:31.694Z,18.90
2019-02-08T10:43:58.195Z,19.00
2019-02-08T10:45:23.318Z,19.10
2019-02-08T10:46:34.819Z,19.20
2019-02-08T10:47:43.303Z,19.20
2019-02-08T10:49:10.650Z,19.30
2019-02-08T10:50:27.633Z,19.30
2019-02-08T10:51:52.189Z,19.30
2019-02-08T10:53:06.185Z,19.40
2019-02-08T10:54:38.228Z,19.40
2019-02-08T10:56:04.774Z,19.40
2019-02-08T10:57:27.582Z,19.50
2019-02-08T10:58:48.149Z,19.50
2019-02-08T11:00:02.922Z,19.50
2019-02-08T11:01:27.039Z,19.50
2019-02-08T11:02:55.900Z,19.50
2019-02-08T11:04:06.234Z,19.50
2019-02-08T11:05:33.327Z,19.60
2019-02-08T11:07:13.977Z,19.60
2019-02-08T11:08:38.432Z,19.60
2019-02-08T11:10:11.316Z,19.70
2019-02-08T11:11:27.823Z,19.70
2019-02-08T11:13:06.934Z,19.70
2019-02-08T11:14:26.604Z,19.70
2019-02-08T11:16:03.345Z,19.80
2019-02-08T11:17:32.148Z,19.90
2019-02-08T11:18:56.652Z,20.00
2019-02-08T11:20:01.137Z,20.10
2019-02-08T11:21:05.770Z,20.30
2019-02-08T11:22:10.404Z,20.30
2019-02-08T11:23:14.885Z,20.40
2019-02-08T11:24:21.091Z,20.60
2019-02-08T11:25:25.613Z,20.70
2019-02-08T11:26:30.217Z,20.80
2019-02-08T11:27:34.690Z,20.90
2019-02-08T11:28:39.224Z,20.90
2019-02-08T11:29:43.691Z,21.00
2019-02-08T11:30:48.170Z,21.00
2019-02-08T11:31:52.708Z,21.10
2019-02-08T11:32:57.254Z,21.10
2019-02-08T11:34:01.751Z,21.10
2019-02-08T11:35:08.475Z,21.10
2019-02-08T11:36:13.193Z,21.10
2019-02-08T11:37:17.736Z,21.00
2019-02-08T11:38:22.219Z,21.00
2019-02-08T11:39:28.269Z,21.00
2019-02-08T11:40:32.754Z,20.90
2019-02-08T11:41:37.305Z,20.80
2019-02-08T11:42:41.806Z,20.70
2019-02-08T11:43:46.339Z,20.70
2019-02-08T11:44:50.815Z,20.70
2019-02-08T11:45:56.614Z,20.60
2019-02-08T11:47:01.508Z,20.60
2019-02-08T11:48:06.425Z,20.60
2019-02-08T11:49:10.917Z,20.60
2019-02-08T11:50:18.789Z,20.60
2019-02-08T11:51:23.360Z,20.70
2019-02-08T11:52:28.754Z,20.70
2019-02-08T11:53:33.243Z,20.70
2019-02-08T11:54:37.825Z,20.70
2019-02-08T11:55:42.304Z,20.70
2019-02-08T11:56:46.882Z,20.80
2019-02-08T11:57:51.486Z,20.80
2019-02-08T11:58:56.134Z,20.80
2019-02-08T12:00:01.727Z,20.80
2019-02-08T12:01:06.490Z,20.90
2019-02-08T12:02:11.112Z,20.90
2019-02-08T12:03:15.619Z,20.90
2019-02-08T12:04:20.144Z,21.00
2019-02-08T12:05:24.682Z,21.00
2019-02-08T12:06:29.264Z,21.10
2019-02-08T12:07:34.228Z,21.10
2019-02-08T12:08:38.703Z,21.20
2019-02-08T12:09:43.323Z,21.20
2019-02-08T12:10:47.807Z,21.30
2019-02-08T12:11:52.311Z,21.40
2019-02-08T12:12:56.830Z,21.40
2019-02-08T12:14:01.354Z,21.50
2019-02-08T12:15:15.121Z,21.50
2019-02-08T12:16:19.612Z,21.60
2019-02-08T12:17:24.148Z,21.70
2019-02-08T12:18:28.707Z,21.70
2019-02-08T12:19:33.267Z,21.80
2019-02-08T12:20:37.753Z,22.00
2019-02-08T12:21:42.556Z,22.10
2019-02-08T12:22:47.023Z,22.20
2019-02-08T12:23:51.570Z,22.30
2019-02-08T12:24:56.038Z,22.40
2019-02-08T12:26:00.530Z,22.50
2019-02-08T12:27:06.379Z,22.60
2019-02-08T12:28:10.849Z,22.70
2019-02-08T12:29:15.460Z,22.80
2019-02-08T12:30:23.121Z,22.80
2019-02-08T12:31:27.595Z,22.90
2019-02-08T12:32:32.166Z,23.00
2019-02-08T12:33:38.288Z,23.10
2019-02-08T12:34:42.780Z,23.20
2019-02-08T12:35:47.284Z,23.30
2019-02-08T12:36:51.830Z,23.40
2019-02-08T12:37:56.331Z,23.50
2019-02-08T12:39:00.876Z,23.60
2019-02-08T12:40:09.723Z,23.70
2019-02-08T12:41:14.215Z,23.80
2019-02-08T12:42:18.705Z,24.00
2019-02-08T12:43:23.180Z,24.10
2019-02-08T12:44:27.666Z,24.10
2019-02-08T12:45:32.218Z,24.20
2019-02-08T12:46:36.986Z,24.20
2019-02-08T12:47:41.479Z,24.20
2019-02-08T12:48:46.027Z,24.20
2019-02-08T12:49:50.508Z,24.20
2019-02-08T12:50:55.001Z,24.20
2019-02-08T12:51:59.654Z,24.20
2019-02-08T12:53:04.468Z,24.20
2019-02-08T12:54:09.043Z,24.20
2019-02-08T12:55:18.507Z,24.20
2019-02-08T12:56:23.234Z,24.20
2019-02-08T12:57:27.892Z,24.10
2019-02-08T12:58:32.420Z,24.00
2019-02-08T12:59:36.937Z,23.90
2019-02-08T13:00:41.410Z,23.80
2019-02-08T13:01:45.896Z,23.80
2019-02-08T13:02:50.350Z,23.60
2019-02-08T13:03:54.816Z,23.60
2019-02-08T13:04:59.650Z,23.50
2019-02-08T13:06:04.969Z,23.40
2019-02-08T13:07:10.422Z,23.30
2019-02-08T13:08:14.974Z,23.30
2019-02-08T13:09:19.450Z,23.30
2019-02-08T13:10:26.949Z,23.30
2019-02-08T13:11:31.419Z,23.30
2019-02-08T13:12:35.901Z,23.20
2019-02-08T13:13:40.448Z,23.20
2019-02-08T13:14:44.915Z,23.20
2019-02-08T13:15:49.432Z,23.20
2019-02-08T13:16:54.279Z,23.20
2019-02-08T13:17:58.765Z,23.20
2019-02-08T13:19:03.249Z,23.20
2019-02-08T13:20:10.737Z,23.20
2019-02-08T13:21:15.276Z,23.20
2019-02-08T13:22:19.784Z,23.20
2019-02-08T13:23:24.248Z,23.20
2019-02-08T13:24:28.740Z,23.20
2019-02-08T13:25:33.216Z,23.30
2019-02-08T13:26:37.749Z,23.30
2019-02-08T13:27:42.519Z,23.50
2019-02-08T13:28:47.042Z,23.50
2019-02-08T13:29:51.521Z,23.60
2019-02-08T13:30:55.987Z,23.70
2019-02-08T13:32:00.492Z,23.80
2019-02-08T13:33:05.306Z,23.90
2019-02-08T13:34:09.799Z,23.90
2019-02-08T13:35:14.274Z,23.90
2019-02-08T13:36:19.028Z,23.90
2019-02-08T13:37:23.531Z,23.90
2019-02-08T13:38:27.998Z,23.80
2019-02-08T13:39:32.508Z,23.80
2019-02-08T13:40:36.981Z,23.80
2019-02-08T13:41:41.466Z,23.80
2019-02-08T13:42:45.944Z,23.80
2019-02-08T13:43:50.420Z,23.80
2019-02-08T13:44:54.899Z,23.80
2019-02-08T13:45:59.388Z,23.80
2019-02-08T13:47:03.933Z,23.80
2019-02-08T13:48:08.738Z,23.90
2019-02-08T13:49:14.774Z,23.90
2019-02-08T13:50:30.789Z,23.90
2019-02-08T13:51:35.365Z,23.90
2019-02-08T13:52:41.169Z,23.90
2019-02-08T13:53:45.605Z,23.90
2019-02-08T13:54:50.078Z,23.90
2019-02-08T13:55:54.536Z,23.90
2019-02-08T13:57:00.733Z,23.90
2019-02-08T13:58:06.236Z,23.90
2019-02-08T13:59:10.877Z,24.00
2019-02-08T14:00:22.583Z,24.00
2019-02-08T14:01:27.049Z,24.10
2019-02-08T14:02:32.890Z,24.20
2019-02-08T14:03:37.829Z,24.20
2019-02-08T14:04:42.320Z,24.30
2019-02-08T14:05:46.871Z,24.40
2019-02-08T14:06:51.344Z,24.50
2019-02-08T14:07:55.842Z,24.50
2019-02-08T14:09:04.315Z,24.60
2019-02-08T14:10:11.925Z,24.70
2019-02-08T14:11:16.402Z,24.70
2019-02-08T14:12:20.959Z,24.80
2019-02-08T14:13:25.420Z,24.80
2019-02-08T14:14:29.917Z,24.80
2019-02-08T14:15:35.851Z,24.90
2019-02-08T14:16:40.333Z,24.90
2019-02-08T14:17:44.820Z,24.90
2019-02-08T14:18:50.929Z,24.80
2019-02-08T14:19:55.407Z,24.90
2019-02-08T14:20:59.883Z,24.90
2019-02-08T14:22:04.704Z,24.80
2019-02-08T14:23:09.185Z,24.80
2019-02-08T14:24:13.736Z,24.80
2019-02-08T14:25:18.563Z,24.70
2019-02-08T14:26:23.051Z,24.70
2019-02-08T14:27:27.643Z,24.60
2019-02-08T14:28:32.113Z,24.50
2019-02-08T14:29:36.625Z,24.40
2019-02-08T14:30:43.090Z,24.30
2019-02-08T14:31:47.626Z,24.20
2019-02-08T14:32:52.105Z,24.10
2019-02-08T14:33:56.635Z,24.00
2019-02-08T14:35:01.106Z,23.90
2019-02-08T14:36:05.963Z,23.80
2019-02-08T14:37:10.452Z,23.70
2019-02-08T14:38:18.370Z,23.60
2019-02-08T14:39:22.893Z,23.50
2019-02-08T14:40:28.808Z,23.40
2019-02-08T14:41:34.827Z,23.30
2019-02-08T14:42:39.351Z,23.20
2019-02-08T14:43:43.853Z,23.10
2019-02-08T14:44:48.335Z,23.00
2019-02-08T14:45:52.890Z,22.80
2019-02-08T14:46:57.368Z,22.70
2019-02-08T14:48:02.029Z,22.60
2019-02-08T14:49:08.107Z,22.50
2019-02-08T14:50:31.135Z,22.40
2019-02-08T14:51:35.611Z,22.20
2019-02-08T14:52:40.447Z,22.10
2019-02-08T14:53:45.007Z,21.90
2019-02-08T14:54:49.491Z,21.80
2019-02-08T14:55:54.013Z,21.70
2019-02-08T14:56:58.471Z,21.50
2019-02-08T14:58:05.595Z,21.40
2019-02-08T14:59:10.434Z,21.20
2019-02-08T15:00:20.418Z,21.10
2019-02-08T15:01:25.420Z,20.90
2019-02-08T15:02:29.953Z,20.80
2019-02-08T15:03:34.785Z,20.60
2019-02-08T15:04:40.694Z,20.50
2019-02-08T15:05:45.292Z,20.40